Airfield :
LOGIN :

Register | Disclaimer

   EN    FR    IT 

 










Legend :    VFR   Marginal VFR   IFR   Intensive IFR   Very Intensive IFR
Visi :
Ceiling :
>= 8 km
>= 3000ft
5 to 8 km
1000 to 3000 ft
1500m to 5 km
500 to 1000 ft
800 to 1500m
200 to 500 ft
< 800m
< 200 ft
Symbols :   Thunderstorms  Fog  Heavy snow  Heavy precipitations  Wind > 20 kt
SIGMETs :     Misc.  Thunderstorms  Icing  Turbulence  Mountain Waves  Volcanic Ashes







- Airport Elevation : 1046 ft
- IATA code : NUE


EDDN - Nuremberg

CURRENT METAR :
  • 231750Z 07005KT 010V110 9999 BKN025 10/06 Q1017 NOSIG

EXPIRED METARs :
  • 231720Z 08004KT 020V130 9999 BKN027 10/05 Q1017 NOSIG
  • 231650Z 06004KT 020V100 9999 BKN027 10/06 Q1017 NOSIG
  • 231620Z 08004KT 360V140 9999 BKN029 11/06 Q1016 NOSIG
  • 231550Z 07004KT 330V120 9999 BKN029 11/06 Q1016 NOSIG
  • 231520Z 06004KT 350V110 9999 FEW018 BKN028 11/06 Q1016 NOSIG

TAF TAF EDDN
Valid from the 23 at 18:00 until the 24 at 18:00 UTC


231700Z 2318/2418 05003KT 9999 SCT025
BECMG 2406/2408 06008KT
No reported NOTAMs for that airfield.



MET'MAP, your aeronautical weather chart ! - Copyright ORBIFLY December 2007 - Disclaimer

ORBIFLY MET'MAP TEAM :

Programming & Development : Alexandra Zaïnal
Concept & Development : Baudouin d'Aumeries
Co-Development & Prog : Marc-Olivier Méhu
Technical & hardware support : Manuel Goepfert

Contact : metmap@orbifly.com




SOURCES & CREDITS :

   NOAA